Time;durP1;ratioP1;P1;durP2;ratioP2;P2;SDS_P1;SDS_P2;PMS_P1;PMS_P2;Temp;Humidity;BMP_temperature;BMP_pressure;BME280_temperature;BME280_humidity;BME280_pressure;Samples;Min_cycle;Max_cycle;Signal;HPM_P1;HPM_P2
2023/10/15 00:00:40;;;;;;;0.00;0.00;;;;;;;8.56;65.93;100826.22;15821634;28;19934;-47
2023/10/15 00:08:15;;;;;;;0.00;0.00;;;;;;;8.64;65.61;100832.25;15809812;28;20068;-49
2023/10/15 00:15:51;;;;;;;0.00;0.00;;;;;;;8.54;66.04;100814.88;15834283;28;20514;-45
2023/10/15 00:23:25;;;;;;;0.00;0.00;;;;;;;8.37;66.42;100823.19;15810243;28;20062;-50
2023/10/15 00:31:00;;;;;;;0.00;0.00;;;;;;;8.04;66.57;100768.59;15822755;28;20063;-50
2023/10/15 00:38:36;;;;;;;0.00;0.00;;;;;;;8.38;66.36;100827.50;15788177;28;20407;-45
2023/10/15 00:46:13;;;;;;;0.00;0.00;;;;;;;8.31;66.14;100823.94;15826484;28;20035;-51
2023/10/15 00:53:50;;;;;;;0.00;0.00;;;;;;;8.33;66.12;100827.22;15808976;28;20047;-52
2023/10/15 01:01:26;;;;;;;0.00;0.00;;;;;;;8.27;66.30;100832.53;15814662;28;20054;-48
2023/10/15 01:09:08;;;;;;;0.43;0.32;;;;;;;8.26;65.81;100829.03;15793423;28;20063;-50
2023/10/15 01:16:47;;;;;;;0.00;0.00;;;;;;;8.32;65.91;100836.28;15821940;28;20059;-48
2023/10/15 01:24:22;;;;;;;0.10;0.10;;;;;;;8.11;66.27;100822.91;15823585;28;20130;-50
2023/10/15 01:32:03;;;;;;;0.00;0.00;;;;;;;8.02;66.41;100824.91;15828446;28;20543;-50
2023/10/15 01:39:39;;;;;;;0.00;0.00;;;;;;;7.92;66.71;100819.88;15803057;28;20071;-48
2023/10/15 01:47:18;;;;;;;0.30;0.30;;;;;;;8.05;66.39;100818.34;15814737;28;20036;-49
2023/10/15 01:54:54;;;;;;;0.00;0.00;;;;;;;8.24;66.21;100839.09;15835149;28;20644;-48
2023/10/15 02:02:32;;;;;;;0.00;0.00;;;;;;;8.17;66.14;100847.06;15811720;28;20117;-49
2023/10/15 02:10:07;;;;;;;0.00;0.00;;;;;;;8.11;66.33;100846.97;15811554;28;20039;-50
2023/10/15 02:17:43;;;;;;;0.00;0.00;;;;;;;7.85;66.70;100837.69;15814916;28;20040;-48
2023/10/15 02:25:17;;;;;;;0.00;0.00;;;;;;;7.84;66.59;100836.03;15802182;28;20561;-49
2023/10/15 02:32:53;;;;;;;0.15;0.15;;;;;;;8.03;66.31;100839.13;15808349;28;20023;-53
2023/10/15 02:40:36;;;;;;;0.00;0.00;;;;;;;8.06;66.23;100838.72;15828883;28;20067;-59
2023/10/15 02:48:11;;;;;;;0.00;0.00;;;;;;;8.00;66.21;100845.66;15823796;28;20139;-49
2023/10/15 02:55:50;;;;;;;0.05;0.05;;;;;;;8.00;66.10;100851.00;15817504;28;20036;-53
2023/10/15 03:03:32;;;;;;;;;;;;;;;8.31;65.19;100847.19;15817075;28;20579;-46
2023/10/15 03:11:13;;;;;;;0.00;0.00;;;;;;;7.75;66.49;100847.06;15796749;28;19930;-55
2023/10/15 03:18:49;;;;;;;0.00;0.00;;;;;;;7.76;66.67;100849.53;15816565;28;20059;-51
2023/10/15 03:26:23;;;;;;;0.00;0.00;;;;;;;7.53;68.00;100864.88;15792017;28;20070;-50
2023/10/15 03:34:16;;;;;;;0.00;0.00;;;;;;;7.64;67.11;100872.38;15817415;28;20066;-50
2023/10/15 03:41:52;;;;;;;;;;;;;;;7.51;67.25;100862.41;15810368;28;20064;-52
2023/10/15 03:49:29;;;;;;;0.30;0.30;;;;;;;7.45;67.68;100857.78;15789493;28;19974;-55
2023/10/15 03:57:06;;;;;;;0.00;0.00;;;;;;;7.41;67.49;100859.16;15838987;28;20500;-48
2023/10/15 04:04:41;;;;;;;0.00;0.00;;;;;;;7.33;67.84;100859.28;15830023;28;20051;-52
2023/10/15 04:12:14;;;;;;;0.00;0.00;;;;;;;7.51;67.08;100849.03;15831382;28;20047;-47
2023/10/15 04:19:50;;;;;;;0.57;0.57;;;;;;;7.56;67.34;100851.97;15835899;28;20112;-50
2023/10/15 04:27:27;;;;;;;0.15;0.15;;;;;;;7.34;67.46;100848.41;15816524;28;20556;-47
2023/10/15 04:35:05;;;;;;;0.00;0.00;;;;;;;7.16;68.99;100843.47;15788670;28;20055;-48
2023/10/15 04:42:48;;;;;;;0.00;0.00;;;;;;;7.36;68.32;100838.38;15807319;22;20078;-49
2023/10/15 04:50:28;;;;;;;0.22;0.22;;;;;;;7.11;68.70;100845.03;15830000;28;20040;-49
2023/10/15 04:58:02;;;;;;;0.00;0.00;;;;;;;7.50;67.73;100841.19;15786294;28;20406;-49
2023/10/15 05:05:38;;;;;;;0.65;0.63;;;;;;;7.34;67.89;100842.25;15793059;28;20047;-52
2023/10/15 05:13:11;;;;;;;0.00;0.00;;;;;;;7.20;68.66;100840.44;15785222;28;20479;-48
2023/10/15 05:20:48;;;;;;;0.08;0.08;;;;;;;6.85;69.83;100854.34;15786551;28;20044;-49
2023/10/15 05:28:22;;;;;;;1.55;1.38;;;;;;;7.26;68.31;100850.34;15796880;28;20051;-48
2023/10/15 05:35:57;;;;;;;0.00;0.00;;;;;;;6.87;69.27;100857.63;15800806;28;20039;-48
2023/10/15 05:43:31;;;;;;;0.45;0.45;;;;;;;6.75;69.64;100874.25;15807438;28;20067;-49
2023/10/15 05:51:09;;;;;;;0.22;0.22;;;;;;;7.03;69.35;100877.97;15807460;28;20036;-50
2023/10/15 05:58:42;;;;;;;0.00;0.00;;;;;;;7.17;69.14;100873.66;15805690;28;20518;-49
2023/10/15 06:06:17;;;;;;;;;;;;;;;7.11;69.60;100872.56;15807256;28;20128;-50
2023/10/15 06:13:50;;;;;;;0.00;0.00;;;;;;;7.05;69.42;100875.97;15804523;28;20026;-49
2023/10/15 06:21:25;;;;;;;0.00;0.00;;;;;;;6.63;70.72;100879.22;15796843;28;20059;-48
2023/10/15 06:29:00;;;;;;;0.00;0.00;;;;;;;6.83;69.86;100877.69;15806066;28;20493;-50
2023/10/15 06:36:37;;;;;;;0.22;0.22;;;;;;;6.85;70.59;100882.81;15811124;28;20068;-51
2023/10/15 06:44:10;;;;;;;0.00;0.00;;;;;;;6.94;70.62;100892.41;15787900;28;20028;-49
2023/10/15 06:51:45;;;;;;;0.10;0.10;;;;;;;7.32;69.29;100879.84;15799544;28;20076;-50
2023/10/15 06:59:19;;;;;;;1.20;0.32;;;;;;;8.21;66.13;100889.44;15799414;28;20139;-52
2023/10/15 07:06:54;;;;;;;0.00;0.00;;;;;;;8.37;65.48;100897.25;15789866;28;20131;-49
2023/10/15 07:14:29;;;;;;;0.00;0.00;;;;;;;8.49;65.42;100897.56;15799543;28;20455;-49
2023/10/15 07:22:05;;;;;;;0.00;0.00;;;;;;;8.59;64.92;100898.06;15791287;28;20040;-52
2023/10/15 07:29:41;;;;;;;0.00;0.00;;;;;;;8.87;64.17;100927.53;15801317;28;20393;-51
2023/10/15 07:37:15;;;;;;;0.00;0.00;;;;;;;8.75;64.25;100934.41;15788001;28;20093;-50
2023/10/15 07:44:48;;;;;;;2.08;1.45;;;;;;;8.60;63.29;100927.28;15798488;28;20048;-48
2023/10/15 07:52:24;;;;;;;0.45;0.45;;;;;;;9.19;63.44;100921.56;15794391;28;20131;-52
2023/10/15 07:59:58;;;;;;;0.00;0.00;;;;;;;9.13;62.83;100927.69;15795118;28;20094;-49
2023/10/15 08:07:34;;;;;;;0.10;0.10;;;;;;;9.64;61.34;100934.56;15793836;28;20033;-53
2023/10/15 08:15:08;;;;;;;0.00;0.00;;;;;;;10.02;60.33;100944.81;15794554;28;20285;-50
2023/10/15 08:22:44;;;;;;;0.00;0.00;;;;;;;9.32;62.20;100958.28;15784977;28;20066;-51
2023/10/15 08:30:18;;;;;;;0.00;0.00;;;;;;;9.17;61.73;100961.09;15797808;28;20161;-51
2023/10/15 08:37:53;;;;;;;0.00;0.00;;;;;;;9.30;62.19;100971.06;15798536;28;20040;-52
2023/10/15 08:45:27;;;;;;;0.00;0.00;;;;;;;9.02;62.77;100970.25;15784893;28;20577;-51
2023/10/15 08:53:04;;;;;;;0.00;0.00;;;;;;;8.96;62.51;100966.50;15782494;28;20072;-50
2023/10/15 09:00:39;;;;;;;0.00;0.00;;;;;;;9.40;62.62;100976.91;15796329;28;20044;-52
2023/10/15 09:08:16;;;;;;;0.00;0.00;;;;;;;10.23;60.34;100987.59;15802052;28;20419;-48
2023/10/15 09:15:52;;;;;;;0.15;0.15;;;;;;;10.22;60.02;100970.69;15801118;28;20059;-49
2023/10/15 09:23:32;;;;;;;0.75;0.47;;;;;;;10.40;58.80;100972.00;15773419;28;20650;-48
2023/10/15 09:31:09;;;;;;;0.00;0.00;;;;;;;9.85;59.44;100982.72;15795297;28;20119;-48
2023/10/15 09:38:45;;;;;;;0.00;0.00;;;;;;;9.76;59.06;100993.81;15799419;28;20210;-51
2023/10/15 09:46:20;;;;;;;0.00;0.00;;;;;;;9.92;59.53;101004.19;15772486;28;20097;-49
2023/10/15 09:53:56;;;;;;;0.00;0.00;;;;;;;9.81;59.38;101016.31;15791840;28;20439;-50
2023/10/15 10:01:31;;;;;;;0.00;0.00;;;;;;;10.02;58.33;101020.72;15784829;28;20503;-52
2023/10/15 10:09:21;;;;;;;0.25;0.25;;;;;;;10.68;57.09;101025.53;15767551;28;20131;-49
2023/10/15 10:16:55;;;;;;;0.00;0.00;;;;;;;10.17;56.40;101036.69;15764147;28;20075;-51
2023/10/15 10:24:43;;;;;;;0.00;0.00;;;;;;;11.43;56.43;101031.53;15790959;28;20046;-50
2023/10/15 10:32:17;;;;;;;0.00;0.00;;;;;;;11.93;54.69;101032.69;15763577;28;20108;-55
2023/10/15 10:39:52;;;;;;;0.00;0.00;;;;;;;11.38;55.96;101028.66;15775320;28;20123;-53
2023/10/15 10:47:33;;;;;;;0.00;0.00;;;;;;;10.87;54.71;101029.28;15803602;22;20050;-50
2023/10/15 10:55:31;;;;;;;0.00;0.00;;;;;;;10.89;54.76;101019.97;15763837;28;20058;-50
2023/10/15 11:03:06;;;;;;;0.00;0.00;;;;;;;11.42;53.03;101024.50;15778568;28;20131;-56
2023/10/15 11:10:44;;;;;;;2.10;1.55;;;;;;;11.32;51.92;101011.47;15747238;28;20436;-51
2023/10/15 11:18:21;;;;;;;0.98;0.68;;;;;;;11.89;51.46;101012.66;15757549;28;20098;-53
2023/10/15 11:25:57;;;;;;;0.20;0.10;;;;;;;11.72;51.43;101014.94;15761569;28;20488;-51
2023/10/15 11:33:30;;;;;;;0.00;0.00;;;;;;;11.40;52.12;101031.97;15769922;28;20229;-48
2023/10/15 11:41:07;;;;;;;0.00;0.00;;;;;;;11.21;52.82;101018.31;15743683;28;20088;-52
2023/10/15 11:48:40;;;;;;;0.00;0.00;;;;;;;13.11;48.18;101008.00;15750245;28;20350;-51
2023/10/15 11:56:20;;;;;;;0.00;0.00;;;;;;;12.33;50.69;101026.34;15767808;28;20044;-48
2023/10/15 12:03:57;;;;;;;0.00;0.00;;;;;;;11.71;50.84;101015.16;15759274;28;20113;-51
2023/10/15 12:11:33;;;;;;;0.00;0.00;;;;;;;11.43;50.85;101020.78;15765080;28;20097;-56
2023/10/15 12:19:08;;;;;;;0.00;0.00;;;;;;;11.40;52.05;101021.19;15748318;28;20040;-53
2023/10/15 12:26:44;;;;;;;0.00;0.00;;;;;;;12.89;49.20;101010.22;15749646;28;20047;-51
2023/10/15 12:34:17;;;;;;;0.00;0.00;;;;;;;14.17;46.74;101014.16;15758362;28;20048;-53
2023/10/15 12:41:53;;;;;;;0.00;0.00;;;;;;;14.36;46.30;101012.25;15758570;28;20060;-55
2023/10/15 12:49:27;;;;;;;0.00;0.00;;;;;;;13.12;47.82;101011.50;15780672;28;20393;-50
2023/10/15 12:57:03;;;;;;;0.00;0.00;;;;;;;13.50;46.48;101011.38;15781806;28;20064;-51
2023/10/15 13:04:39;;;;;;;0.00;0.00;;;;;;;12.95;46.97;101019.31;15769586;28;20052;-51
2023/10/15 13:12:14;;;;;;;2.20;0.47;;;;;;;11.30;54.59;101032.38;15739998;28;20048;-53
2023/10/15 13:19:47;;;;;;;0.00;0.00;;;;;;;11.27;60.51;101018.53;15754006;28;20535;-52
2023/10/15 13:27:22;;;;;;;1.25;0.70;;;;;;;11.16;60.66;101023.50;15732684;28;20040;-54
2023/10/15 13:34:55;;;;;;;0.00;0.00;;;;;;;11.69;58.39;101004.59;15773844;28;20070;-56
2023/10/15 13:42:30;;;;;;;0.00;0.00;;;;;;;11.70;55.98;101022.41;15763336;28;20353;-48
2023/10/15 13:50:06;;;;;;;0.00;0.00;;;;;;;10.79;56.17;101038.34;15745245;28;20044;-56
2023/10/15 13:57:41;;;;;;;1.45;0.45;;;;;;;10.93;54.93;101031.13;15775235;28;20524;-53
2023/10/15 14:05:15;;;;;;;0.00;0.00;;;;;;;10.44;54.22;101038.50;15769854;28;20747;-54
2023/10/15 14:12:51;;;;;;;0.00;0.00;;;;;;;10.38;53.76;101041.94;15792793;28;20488;-53
2023/10/15 14:20:24;;;;;;;0.00;0.00;;;;;;;11.23;53.02;101061.91;15791864;28;20131;-50
2023/10/15 14:27:59;;;;;;;0.00;0.00;;;;;;;10.72;53.31;101032.13;15753912;28;20103;-50
2023/10/15 14:35:32;;;;;;;0.00;0.00;;;;;;;10.79;54.36;101073.25;15791900;28;20043;-51
2023/10/15 14:43:07;;;;;;;;;;;;;;;10.64;53.86;101078.78;15791866;28;20105;-53
2023/10/15 14:50:40;;;;;;;0.00;0.00;;;;;;;10.63;54.34;101087.88;15756641;28;19939;-51
2023/10/15 14:58:15;;;;;;;0.15;0.13;;;;;;;10.51;55.83;101084.13;15771944;28;20091;-55
2023/10/15 15:05:49;;;;;;;0.00;0.00;;;;;;;10.55;55.70;101097.97;15788788;28;20044;-48
2023/10/15 15:13:24;;;;;;;0.28;0.25;;;;;;;10.43;54.84;101108.44;15769251;28;20048;-49
2023/10/15 15:21:02;;;;;;;0.00;0.00;;;;;;;10.31;56.18;101113.56;15756501;28;20055;-53
2023/10/15 15:28:37;;;;;;;0.00;0.00;;;;;;;10.26;56.92;101116.03;15780787;28;20048;-48
2023/10/15 15:36:10;;;;;;;0.00;0.00;;;;;;;10.14;56.96;101122.94;15781311;28;20483;-52
2023/10/15 15:43:46;;;;;;;0.00;0.00;;;;;;;10.05;56.37;101129.47;15784910;28;20083;-51
2023/10/15 15:51:22;;;;;;;0.00;0.00;;;;;;;9.51;57.24;101135.47;15793955;28;20072;-48
2023/10/15 15:58:57;;;;;;;0.00;0.00;;;;;;;9.81;56.55;101138.81;15796342;28;20037;-50
2023/10/15 16:06:30;;;;;;;0.00;0.00;;;;;;;9.45;57.12;101153.16;15796970;28;20089;-52
2023/10/15 16:14:05;;;;;;;;;;;;;;;9.58;56.46;101166.66;15770965;28;20043;-49
2023/10/15 16:21:38;;;;;;;1.95;0.63;;;;;;;9.42;57.20;101175.81;15776895;28;19992;-49
2023/10/15 16:29:13;;;;;;;0.00;0.00;;;;;;;9.10;58.06;101185.16;15795157;28;20047;-52
2023/10/15 16:36:48;;;;;;;0.00;0.00;;;;;;;8.99;58.21;101196.34;15794175;28;20051;-53
2023/10/15 16:44:25;;;;;;;0.00;0.00;;;;;;;9.07;58.55;101206.13;15816319;22;20051;-48
2023/10/15 16:51:58;;;;;;;0.00;0.00;;;;;;;9.06;58.70;101218.69;15797906;28;20128;-51
2023/10/15 16:59:33;;;;;;;0.80;0.57;;;;;;;8.98;59.25;101226.84;15834889;28;20062;-48
2023/10/15 17:07:06;;;;;;;0.00;0.00;;;;;;;9.13;59.36;101224.94;15838283;28;20044;-52
2023/10/15 17:14:40;;;;;;;0.00;0.00;;;;;;;9.01;60.49;101236.34;15827197;28;20050;-50
2023/10/15 17:22:14;;;;;;;0.00;0.00;;;;;;;8.77;60.44;101250.88;15833206;28;20044;-51
2023/10/15 17:29:49;;;;;;;0.00;0.00;;;;;;;8.69;60.72;101252.63;15813682;28;20044;-53
2023/10/15 17:37:23;;;;;;;0.43;0.25;;;;;;;8.57;61.30;101270.16;15808342;28;20084;-51
2023/10/15 17:44:58;;;;;;;0.00;0.00;;;;;;;8.58;60.91;101271.84;15815533;28;20388;-51
2023/10/15 17:52:31;;;;;;;0.00;0.00;;;;;;;8.62;60.65;101281.13;15835340;28;20052;-50
2023/10/15 18:00:14;;;;;;;0.00;0.00;;;;;;;8.52;61.37;101277.91;15817649;28;20493;-55
2023/10/15 18:07:49;;;;;;;0.00;0.00;;;;;;;8.65;61.35;101286.13;15810245;28;20051;-51
2023/10/15 18:15:28;;;;;;;0.00;0.00;;;;;;;8.55;61.80;101292.75;15827707;28;20494;-52
2023/10/15 18:23:02;;;;;;;0.00;0.00;;;;;;;8.46;62.70;101288.50;15836480;28;20059;-49
2023/10/15 18:30:37;;;;;;;;;;;;;;;8.47;62.53;101306.22;15823268;28;20032;-52
2023/10/15 18:38:11;;;;;;;0.52;0.20;;;;;;;8.22;62.83;101305.59;15839736;28;19998;-50
2023/10/15 18:45:47;;;;;;;0.00;0.00;;;;;;;8.13;63.36;101304.84;15829672;28;20055;-52
2023/10/15 18:53:20;;;;;;;0.00;0.00;;;;;;;8.16;63.28;101309.84;15829283;28;20059;-49
2023/10/15 19:00:54;;;;;;;;;;;;;;;8.16;64.74;101328.56;15801698;28;20036;-50
2023/10/15 19:08:28;;;;;;;3.92;1.45;;;;;;;8.52;64.38;101334.09;15822672;28;19920;-51
2023/10/15 19:16:04;;;;;;;0.10;0.10;;;;;;;8.10;64.42;101345.28;15842958;28;20036;-50
2023/10/15 19:23:38;;;;;;;0.00;0.00;;;;;;;8.12;64.60;101348.63;15825189;28;20508;-51
2023/10/15 19:31:13;;;;;;;0.00;0.00;;;;;;;7.97;65.29;101353.91;15824218;28;20032;-55
2023/10/15 19:38:47;;;;;;;0.00;0.00;;;;;;;7.78;65.61;101365.88;15789388;28;20508;-53
2023/10/15 19:46:21;;;;;;;1.30;1.23;;;;;;;7.76;66.04;101372.44;15819491;28;20048;-54
2023/10/15 19:53:55;;;;;;;0.43;0.20;;;;;;;7.94;65.37;101372.97;15800827;28;20053;-52
2023/10/15 20:01:29;;;;;;;0.00;0.00;;;;;;;7.79;65.88;101382.78;15830427;28;20097;-49
2023/10/15 20:09:09;;;;;;;5.47;0.90;;;;;;;7.36;67.47;101393.81;15829221;28;20063;-51
2023/10/15 20:16:44;;;;;;;0.00;0.00;;;;;;;7.50;66.88;101407.44;15785254;28;20382;-52
2023/10/15 20:24:18;;;;;;;0.00;0.00;;;;;;;7.47;66.48;101407.81;15799609;28;20043;-52
2023/10/15 20:31:53;;;;;;;0.00;0.00;;;;;;;7.43;67.32;101415.34;15814632;28;20388;-48
2023/10/15 20:39:26;;;;;;;0.00;0.00;;;;;;;7.18;67.82;101427.09;15807003;28;20074;-52
2023/10/15 20:47:01;;;;;;;0.00;0.00;;;;;;;7.47;67.50;101427.34;15835617;28;20043;-50
2023/10/15 20:54:35;;;;;;;0.00;0.00;;;;;;;6.97;69.03;101447.16;15820313;28;20048;-50
2023/10/15 21:02:09;;;;;;;1.92;1.17;;;;;;;7.00;69.25;101449.50;15809269;28;20040;-51
2023/10/15 21:09:42;;;;;;;0.00;0.00;;;;;;;7.08;68.85;101453.97;15835217;28;20122;-52
2023/10/15 21:17:17;;;;;;;;;;;;;;;7.04;69.36;101444.63;15845180;28;20141;-56
2023/10/15 21:24:50;;;;;;;0.00;0.00;;;;;;;6.94;69.79;101447.50;15840867;28;20337;-50
2023/10/15 21:32:26;;;;;;;0.00;0.00;;;;;;;6.75;70.19;101447.84;15832476;28;20048;-49
2023/10/15 21:39:59;;;;;;;0.00;0.00;;;;;;;6.71;70.82;101454.50;15809683;28;20126;-49
2023/10/15 21:47:34;;;;;;;0.00;0.00;;;;;;;6.95;69.71;101451.84;15835370;28;20399;-51
2023/10/15 21:55:10;;;;;;;0.00;0.00;;;;;;;6.85;70.27;101454.69;15831175;28;20050;-48
2023/10/15 22:02:44;;;;;;;0.00;0.00;;;;;;;6.51;71.49;101460.19;15821616;28;20069;-50
2023/10/15 22:10:18;;;;;;;0.00;0.00;;;;;;;6.81;70.70;101463.22;15839163;28;20044;-51
2023/10/15 22:17:52;;;;;;;0.00;0.00;;;;;;;6.80;70.53;101459.69;15835211;28;20044;-50
2023/10/15 22:25:26;;;;;;;0.00;0.00;;;;;;;6.65;71.63;101464.03;15835693;28;20119;-49
2023/10/15 22:33:03;;;;;;;0.00;0.00;;;;;;;6.43;71.96;101462.84;15828142;28;20477;-49
2023/10/15 22:40:36;;;;;;;0.00;0.00;;;;;;;6.45;72.23;101455.53;15847433;28;20036;-50
2023/10/15 22:48:12;;;;;;;0.00;0.00;;;;;;;6.32;72.78;101458.66;15820287;28;20451;-48
2023/10/15 22:55:46;;;;;;;0.00;0.00;;;;;;;6.45;72.48;101455.53;15821780;28;20391;-49
2023/10/15 23:03:21;;;;;;;0.00;0.00;;;;;;;6.38;71.96;101452.66;15817505;28;20036;-52
2023/10/15 23:10:55;;;;;;;0.00;0.00;;;;;;;6.55;72.90;101474.84;15830451;28;20066;-51
2023/10/15 23:18:30;;;;;;;0.00;0.00;;;;;;;6.37;73.25;101477.66;15836218;28;20094;-47
2023/10/15 23:26:03;;;;;;;0.00;0.00;;;;;;;6.35;73.74;101478.84;15814395;28;20031;-48
2023/10/15 23:33:39;;;;;;;0.82;0.82;;;;;;;6.50;72.47;101487.84;15827740;28;20047;-51
2023/10/15 23:41:14;;;;;;;0.00;0.00;;;;;;;6.05;74.41;101469.59;15847594;28;20400;-51
2023/10/15 23:48:51;;;;;;;0.00;0.00;;;;;;;6.27;73.24;101478.81;15845656;28;20044;-48
2023/10/15 23:56:29;;;;;;;0.00;0.00;;;;;;;6.16;73.79;101485.31;15819600;28;20475;-50
